sensor_id;sensor_type;location;lat;lon;timestamp;temperature;humidity
36450;DHT22;22475;51.390;7.180;2023-04-21T00:01:55;13.70;88.70
36450;DHT22;22475;51.390;7.180;2023-04-21T00:04:23;13.70;88.70
36450;DHT22;22475;51.390;7.180;2023-04-21T00:06:50;13.70;88.80
36450;DHT22;22475;51.390;7.180;2023-04-21T00:09:18;13.70;88.80
36450;DHT22;22475;51.390;7.180;2023-04-21T00:11:45;13.70;88.80
36450;DHT22;22475;51.390;7.180;2023-04-21T00:14:12;13.70;88.90
36450;DHT22;22475;51.390;7.180;2023-04-21T00:16:39;13.70;88.80
36450;DHT22;22475;51.390;7.180;2023-04-21T00:19:05;13.70;88.80
36450;DHT22;22475;51.390;7.180;2023-04-21T00:21:32;13.70;88.90
36450;DHT22;22475;51.390;7.180;2023-04-21T00:23:59;13.70;88.90
36450;DHT22;22475;51.390;7.180;2023-04-21T00:26:27;13.70;88.90
36450;DHT22;22475;51.390;7.180;2023-04-21T00:28:54;13.70;88.90
36450;DHT22;22475;51.390;7.180;2023-04-21T00:31:21;13.70;88.90
36450;DHT22;22475;51.390;7.180;2023-04-21T00:33:47;13.70;88.90
36450;DHT22;22475;51.390;7.180;2023-04-21T00:36:14;13.60;88.80
36450;DHT22;22475;51.390;7.180;2023-04-21T00:38:41;13.70;88.90
36450;DHT22;22475;51.390;7.180;2023-04-21T00:41:08;13.70;88.90
36450;DHT22;22475;51.390;7.180;2023-04-21T00:43:36;13.70;88.90
36450;DHT22;22475;51.390;7.180;2023-04-21T00:46:03;13.70;89.00
36450;DHT22;22475;51.390;7.180;2023-04-21T00:48:30;13.70;89.70
36450;DHT22;22475;51.390;7.180;2023-04-21T00:50:56;13.70;88.90
36450;DHT22;22475;51.390;7.180;2023-04-21T00:53:23;13.60;88.90
36450;DHT22;22475;51.390;7.180;2023-04-21T00:55:50;13.70;89.10
36450;DHT22;22475;51.390;7.180;2023-04-21T00:58:17;13.60;89.10
36450;DHT22;22475;51.390;7.180;2023-04-21T01:00:45;13.60;89.10
36450;DHT22;22475;51.390;7.180;2023-04-21T01:03:12;13.70;89.30
36450;DHT22;22475;51.390;7.180;2023-04-21T01:05:38;13.60;89.20
36450;DHT22;22475;51.390;7.180;2023-04-21T01:08:06;13.60;89.20
36450;DHT22;22475;51.390;7.180;2023-04-21T01:10:33;13.60;89.20
36450;DHT22;22475;51.390;7.180;2023-04-21T01:12:59;13.60;89.20
36450;DHT22;22475;51.390;7.180;2023-04-21T01:15:26;13.60;89.20
36450;DHT22;22475;51.390;7.180;2023-04-21T01:17:56;13.70;89.30
36450;DHT22;22475;51.390;7.180;2023-04-21T01:20:23;13.60;89.20
36450;DHT22;22475;51.390;7.180;2023-04-21T01:22:52;13.60;89.30
36450;DHT22;22475;51.390;7.180;2023-04-21T01:25:19;13.60;89.30
36450;DHT22;22475;51.390;7.180;2023-04-21T01:27:47;13.60;89.30
36450;DHT22;22475;51.390;7.180;2023-04-21T01:30:14;13.60;89.30
36450;DHT22;22475;51.390;7.180;2023-04-21T01:32:41;13.60;89.30
36450;DHT22;22475;51.390;7.180;2023-04-21T01:35:08;13.60;89.40
36450;DHT22;22475;51.390;7.180;2023-04-21T01:37:35;13.60;89.50
36450;DHT22;22475;51.390;7.180;2023-04-21T01:40:05;13.60;89.60
36450;DHT22;22475;51.390;7.180;2023-04-21T01:42:35;13.60;89.70
36450;DHT22;22475;51.390;7.180;2023-04-21T01:45:03;13.60;89.60
36450;DHT22;22475;51.390;7.180;2023-04-21T01:47:30;13.60;89.50
36450;DHT22;22475;51.390;7.180;2023-04-21T01:49:57;13.60;89.50
36450;DHT22;22475;51.390;7.180;2023-04-21T01:52:23;13.60;89.50
36450;DHT22;22475;51.390;7.180;2023-04-21T01:54:50;13.60;89.50
36450;DHT22;22475;51.390;7.180;2023-04-21T01:57:18;13.70;89.80
36450;DHT22;22475;51.390;7.180;2023-04-21T01:59:45;13.60;89.70
36450;DHT22;22475;51.390;7.180;2023-04-21T02:02:12;13.60;89.80
36450;DHT22;22475;51.390;7.180;2023-04-21T02:04:39;13.60;89.80
36450;DHT22;22475;51.390;7.180;2023-04-21T02:07:06;13.60;89.80
36450;DHT22;22475;51.390;7.180;2023-04-21T02:09:33;13.60;89.80
36450;DHT22;22475;51.390;7.180;2023-04-21T02:12:00;13.70;89.90
36450;DHT22;22475;51.390;7.180;2023-04-21T02:14:29;13.60;89.70
36450;DHT22;22475;51.390;7.180;2023-04-21T02:16:56;13.60;89.70
36450;DHT22;22475;51.390;7.180;2023-04-21T02:19:22;13.60;89.60
36450;DHT22;22475;51.390;7.180;2023-04-21T02:21:49;13.60;89.80
36450;DHT22;22475;51.390;7.180;2023-04-21T02:24:16;13.60;89.80
36450;DHT22;22475;51.390;7.180;2023-04-21T02:26:43;13.60;89.80
36450;DHT22;22475;51.390;7.180;2023-04-21T02:29:10;13.60;89.80
36450;DHT22;22475;51.390;7.180;2023-04-21T02:31:38;13.60;89.80
36450;DHT22;22475;51.390;7.180;2023-04-21T02:34:06;13.60;89.80
36450;DHT22;22475;51.390;7.180;2023-04-21T02:36:32;13.60;89.80
36450;DHT22;22475;51.390;7.180;2023-04-21T02:38:59;13.60;89.80
36450;DHT22;22475;51.390;7.180;2023-04-21T02:41:28;13.60;89.80
36450;DHT22;22475;51.390;7.180;2023-04-21T02:43:54;13.60;89.80
36450;DHT22;22475;51.390;7.180;2023-04-21T02:46:21;13.60;89.80
36450;DHT22;22475;51.390;7.180;2023-04-21T02:48:49;13.60;89.90
36450;DHT22;22475;51.390;7.180;2023-04-21T02:51:16;13.60;89.90
36450;DHT22;22475;51.390;7.180;2023-04-21T02:53:43;13.60;90.00
36450;DHT22;22475;51.390;7.180;2023-04-21T02:56:09;13.60;90.00
36450;DHT22;22475;51.390;7.180;2023-04-21T02:58:36;13.60;90.00
36450;DHT22;22475;51.390;7.180;2023-04-21T03:01:04;13.60;89.90
36450;DHT22;22475;51.390;7.180;2023-04-21T03:03:31;13.60;89.90
36450;DHT22;22475;51.390;7.180;2023-04-21T03:06:01;13.60;89.90
36450;DHT22;22475;51.390;7.180;2023-04-21T03:08:28;13.60;89.90
36450;DHT22;22475;51.390;7.180;2023-04-21T03:10:55;13.60;89.90
36450;DHT22;22475;51.390;7.180;2023-04-21T03:13:22;13.60;90.00
36450;DHT22;22475;51.390;7.180;2023-04-21T03:15:49;13.60;90.00
36450;DHT22;22475;51.390;7.180;2023-04-21T03:18:17;13.60;90.00
36450;DHT22;22475;51.390;7.180;2023-04-21T03:20:43;13.60;90.00
36450;DHT22;22475;51.390;7.180;2023-04-21T03:23:11;13.60;90.00
36450;DHT22;22475;51.390;7.180;2023-04-21T03:25:38;13.60;90.00
36450;DHT22;22475;51.390;7.180;2023-04-21T03:28:05;13.60;90.00
36450;DHT22;22475;51.390;7.180;2023-04-21T03:30:32;13.60;90.00
36450;DHT22;22475;51.390;7.180;2023-04-21T03:32:59;13.50;90.00
36450;DHT22;22475;51.390;7.180;2023-04-21T03:35:25;13.60;90.10
36450;DHT22;22475;51.390;7.180;2023-04-21T03:37:52;13.50;90.10
36450;DHT22;22475;51.390;7.180;2023-04-21T03:40:21;13.60;90.10
36450;DHT22;22475;51.390;7.180;2023-04-21T03:42:47;13.60;90.10
36450;DHT22;22475;51.390;7.180;2023-04-21T03:45:14;13.50;90.10
36450;DHT22;22475;51.390;7.180;2023-04-21T03:47:44;13.60;90.10
36450;DHT22;22475;51.390;7.180;2023-04-21T03:50:10;13.60;90.10
36450;DHT22;22475;51.390;7.180;2023-04-21T03:52:37;13.60;90.10
36450;DHT22;22475;51.390;7.180;2023-04-21T03:55:04;13.50;90.10
36450;DHT22;22475;51.390;7.180;2023-04-21T03:57:34;13.60;90.20
36450;DHT22;22475;51.390;7.180;2023-04-21T04:00:01;13.50;90.20
36450;DHT22;22475;51.390;7.180;2023-04-21T04:02:29;13.50;90.20
36450;DHT22;22475;51.390;7.180;2023-04-21T04:04:56;13.60;90.20
36450;DHT22;22475;51.390;7.180;2023-04-21T04:07:23;13.60;90.10
36450;DHT22;22475;51.390;7.180;2023-04-21T04:09:50;13.50;90.10
36450;DHT22;22475;51.390;7.180;2023-04-21T04:12:17;13.50;90.10
36450;DHT22;22475;51.390;7.180;2023-04-21T04:14:45;13.50;90.10
36450;DHT22;22475;51.390;7.180;2023-04-21T04:17:12;13.50;90.10
36450;DHT22;22475;51.390;7.180;2023-04-21T04:19:38;13.50;90.10
36450;DHT22;22475;51.390;7.180;2023-04-21T04:22:06;13.50;90.10
36450;DHT22;22475;51.390;7.180;2023-04-21T04:24:33;13.50;90.10
36450;DHT22;22475;51.390;7.180;2023-04-21T04:27:00;13.50;90.10
36450;DHT22;22475;51.390;7.180;2023-04-21T04:29:27;13.50;90.10
36450;DHT22;22475;51.390;7.180;2023-04-21T04:31:55;13.50;90.10
36450;DHT22;22475;51.390;7.180;2023-04-21T04:34:23;13.50;90.40
36450;DHT22;22475;51.390;7.180;2023-04-21T04:36:49;13.40;90.10
36450;DHT22;22475;51.390;7.180;2023-04-21T04:39:16;13.50;90.10
36450;DHT22;22475;51.390;7.180;2023-04-21T04:41:43;13.50;90.10
36450;DHT22;22475;51.390;7.180;2023-04-21T04:44:11;13.50;90.10
36450;DHT22;22475;51.390;7.180;2023-04-21T04:46:40;13.50;90.10
36450;DHT22;22475;51.390;7.180;2023-04-21T04:49:08;13.50;90.20
36450;DHT22;22475;51.390;7.180;2023-04-21T04:51:35;13.50;90.20
36450;DHT22;22475;51.390;7.180;2023-04-21T04:54:02;13.50;90.30
36450;DHT22;22475;51.390;7.180;2023-04-21T04:56:29;13.50;90.30
36450;DHT22;22475;51.390;7.180;2023-04-21T04:58:55;13.50;90.30
36450;DHT22;22475;51.390;7.180;2023-04-21T05:01:22;13.50;90.30
36450;DHT22;22475;51.390;7.180;2023-04-21T05:03:54;13.50;90.30
36450;DHT22;22475;51.390;7.180;2023-04-21T05:06:22;13.50;90.30
36450;DHT22;22475;51.390;7.180;2023-04-21T05:08:49;13.50;90.30
36450;DHT22;22475;51.390;7.180;2023-04-21T05:11:16;13.50;90.30
36450;DHT22;22475;51.390;7.180;2023-04-21T05:13:43;13.50;90.30
36450;DHT22;22475;51.390;7.180;2023-04-21T05:16:09;13.50;90.30
36450;DHT22;22475;51.390;7.180;2023-04-21T05:18:36;13.50;90.30
36450;DHT22;22475;51.390;7.180;2023-04-21T05:21:03;13.50;90.30
36450;DHT22;22475;51.390;7.180;2023-04-21T05:23:31;13.50;90.30
36450;DHT22;22475;51.390;7.180;2023-04-21T05:25:58;13.50;90.30
36450;DHT22;22475;51.390;7.180;2023-04-21T05:28:25;13.50;90.40
36450;DHT22;22475;51.390;7.180;2023-04-21T05:30:54;13.50;90.40
36450;DHT22;22475;51.390;7.180;2023-04-21T05:33:21;13.50;90.40
36450;DHT22;22475;51.390;7.180;2023-04-21T05:35:48;13.50;90.40
36450;DHT22;22475;51.390;7.180;2023-04-21T05:38:14;13.50;90.40
36450;DHT22;22475;51.390;7.180;2023-04-21T05:40:42;13.50;90.40
36450;DHT22;22475;51.390;7.180;2023-04-21T05:43:09;13.50;90.40
36450;DHT22;22475;51.390;7.180;2023-04-21T05:45:38;13.50;90.40
36450;DHT22;22475;51.390;7.180;2023-04-21T05:48:05;13.50;90.30
36450;DHT22;22475;51.390;7.180;2023-04-21T05:50:32;13.50;90.30
36450;DHT22;22475;51.390;7.180;2023-04-21T05:53:00;13.50;90.40
36450;DHT22;22475;51.390;7.180;2023-04-21T05:55:27;13.50;90.40
36450;DHT22;22475;51.390;7.180;2023-04-21T05:57:55;13.40;90.30
36450;DHT22;22475;51.390;7.180;2023-04-21T06:00:22;13.50;90.40
36450;DHT22;22475;51.390;7.180;2023-04-21T06:02:49;13.50;90.40
36450;DHT22;22475;51.390;7.180;2023-04-21T06:05:15;13.50;90.40
36450;DHT22;22475;51.390;7.180;2023-04-21T06:07:42;13.50;90.40
36450;DHT22;22475;51.390;7.180;2023-04-21T06:10:10;13.50;90.40
36450;DHT22;22475;51.390;7.180;2023-04-21T06:12:37;13.50;90.40
36450;DHT22;22475;51.390;7.180;2023-04-21T06:15:06;13.50;90.50
36450;DHT22;22475;51.390;7.180;2023-04-21T06:17:33;13.50;90.50
36450;DHT22;22475;51.390;7.180;2023-04-21T06:19:59;13.50;90.50
36450;DHT22;22475;51.390;7.180;2023-04-21T06:22:26;13.50;90.50
36450;DHT22;22475;51.390;7.180;2023-04-21T06:24:53;13.50;90.60
36450;DHT22;22475;51.390;7.180;2023-04-21T06:27:19;13.50;90.60
36450;DHT22;22475;51.390;7.180;2023-04-21T06:29:46;13.50;90.70
36450;DHT22;22475;51.390;7.180;2023-04-21T06:32:17;13.50;90.70
36450;DHT22;22475;51.390;7.180;2023-04-21T06:34:44;13.50;90.70
36450;DHT22;22475;51.390;7.180;2023-04-21T06:37:11;13.50;90.70
36450;DHT22;22475;51.390;7.180;2023-04-21T06:39:37;13.60;90.70
36450;DHT22;22475;51.390;7.180;2023-04-21T06:42:04;13.60;90.70
36450;DHT22;22475;51.390;7.180;2023-04-21T06:44:31;13.50;90.70
36450;DHT22;22475;51.390;7.180;2023-04-21T06:46:58;13.50;90.70
36450;DHT22;22475;51.390;7.180;2023-04-21T06:49:26;13.50;90.70
36450;DHT22;22475;51.390;7.180;2023-04-21T06:51:53;13.60;90.80
36450;DHT22;22475;51.390;7.180;2023-04-21T06:54:20;13.60;90.80
36450;DHT22;22475;51.390;7.180;2023-04-21T06:56:46;13.60;90.80
36450;DHT22;22475;51.390;7.180;2023-04-21T06:59:15;13.60;90.70
36450;DHT22;22475;51.390;7.180;2023-04-21T07:01:42;13.60;90.80
36450;DHT22;22475;51.390;7.180;2023-04-21T07:04:09;13.60;90.80
36450;DHT22;22475;51.390;7.180;2023-04-21T07:06:37;13.60;90.80
36450;DHT22;22475;51.390;7.180;2023-04-21T07:09:03;13.60;90.80
36450;DHT22;22475;51.390;7.180;2023-04-21T07:11:31;13.60;90.80
36450;DHT22;22475;51.390;7.180;2023-04-21T07:13:57;13.60;90.80
36450;DHT22;22475;51.390;7.180;2023-04-21T07:16:26;13.60;90.80
36450;DHT22;22475;51.390;7.180;2023-04-21T07:18:53;13.60;90.80
36450;DHT22;22475;51.390;7.180;2023-04-21T07:21:20;13.60;90.80
36450;DHT22;22475;51.390;7.180;2023-04-21T07:23:48;13.60;90.90
36450;DHT22;22475;51.390;7.180;2023-04-21T07:26:14;13.60;90.90
36450;DHT22;22475;51.390;7.180;2023-04-21T07:28:42;13.60;90.90
36450;DHT22;22475;51.390;7.180;2023-04-21T07:31:09;13.60;90.90
36450;DHT22;22475;51.390;7.180;2023-04-21T07:33:35;13.60;90.90
36450;DHT22;22475;51.390;7.180;2023-04-21T07:36:03;13.60;91.00
36450;DHT22;22475;51.390;7.180;2023-04-21T07:38:29;13.60;91.00
36450;DHT22;22475;51.390;7.180;2023-04-21T07:40:58;13.60;91.00
36450;DHT22;22475;51.390;7.180;2023-04-21T07:43:24;13.60;91.00
36450;DHT22;22475;51.390;7.180;2023-04-21T07:45:51;13.60;91.00
36450;DHT22;22475;51.390;7.180;2023-04-21T07:48:18;13.60;91.00
36450;DHT22;22475;51.390;7.180;2023-04-21T07:50:45;13.60;91.00
36450;DHT22;22475;51.390;7.180;2023-04-21T07:53:11;13.60;91.10
36450;DHT22;22475;51.390;7.180;2023-04-21T07:55:38;13.60;91.10
36450;DHT22;22475;51.390;7.180;2023-04-21T07:58:06;13.60;91.10
36450;DHT22;22475;51.390;7.180;2023-04-21T08:00:34;13.60;91.20
36450;DHT22;22475;51.390;7.180;2023-04-21T08:03:01;13.60;91.20
36450;DHT22;22475;51.390;7.180;2023-04-21T08:05:28;13.60;91.20
36450;DHT22;22475;51.390;7.180;2023-04-21T08:07:56;13.60;91.20
36450;DHT22;22475;51.390;7.180;2023-04-21T08:10:23;13.60;91.30
36450;DHT22;22475;51.390;7.180;2023-04-21T08:12:50;13.60;91.30
36450;DHT22;22475;51.390;7.180;2023-04-21T08:15:18;13.70;91.30
36450;DHT22;22475;51.390;7.180;2023-04-21T08:17:45;13.60;91.30
36450;DHT22;22475;51.390;7.180;2023-04-21T08:20:12;13.70;91.40
36450;DHT22;22475;51.390;7.180;2023-04-21T08:22:39;13.70;91.40
36450;DHT22;22475;51.390;7.180;2023-04-21T08:25:06;13.70;91.40
36450;DHT22;22475;51.390;7.180;2023-04-21T08:27:33;13.60;91.30
36450;DHT22;22475;51.390;7.180;2023-04-21T08:30:00;13.70;91.40
36450;DHT22;22475;51.390;7.180;2023-04-21T08:32:28;13.70;91.40
36450;DHT22;22475;51.390;7.180;2023-04-21T08:34:54;13.70;91.40
36450;DHT22;22475;51.390;7.180;2023-04-21T08:37:21;13.70;91.30
36450;DHT22;22475;51.390;7.180;2023-04-21T08:39:48;13.70;91.30
36450;DHT22;22475;51.390;7.180;2023-04-21T08:42:16;13.70;91.20
36450;DHT22;22475;51.390;7.180;2023-04-21T08:44:43;13.70;91.20
36450;DHT22;22475;51.390;7.180;2023-04-21T08:47:11;13.70;91.20
36450;DHT22;22475;51.390;7.180;2023-04-21T08:49:41;13.70;91.20
36450;DHT22;22475;51.390;7.180;2023-04-21T08:52:11;13.70;91.30
36450;DHT22;22475;51.390;7.180;2023-04-21T08:54:38;13.70;91.30
36450;DHT22;22475;51.390;7.180;2023-04-21T08:57:06;13.70;91.30
36450;DHT22;22475;51.390;7.180;2023-04-21T08:59:32;13.70;91.40
36450;DHT22;22475;51.390;7.180;2023-04-21T09:02:07;13.70;91.40
36450;DHT22;22475;51.390;7.180;2023-04-21T09:04:34;13.80;91.40
36450;DHT22;22475;51.390;7.180;2023-04-21T09:07:04;13.70;91.40
36450;DHT22;22475;51.390;7.180;2023-04-21T09:09:33;13.70;91.40
36450;DHT22;22475;51.390;7.180;2023-04-21T09:12:00;13.80;91.50
36450;DHT22;22475;51.390;7.180;2023-04-21T09:14:31;13.80;91.50
36450;DHT22;22475;51.390;7.180;2023-04-21T09:17:02;13.80;91.50
36450;DHT22;22475;51.390;7.180;2023-04-21T09:19:29;13.80;91.60
36450;DHT22;22475;51.390;7.180;2023-04-21T09:21:59;13.80;91.60
36450;DHT22;22475;51.390;7.180;2023-04-21T09:24:27;13.80;91.60
36450;DHT22;22475;51.390;7.180;2023-04-21T09:26:54;13.80;91.60
36450;DHT22;22475;51.390;7.180;2023-04-21T09:29:21;13.80;91.60
36450;DHT22;22475;51.390;7.180;2023-04-21T09:31:49;13.80;91.50
36450;DHT22;22475;51.390;7.180;2023-04-21T09:34:18;13.80;91.50
36450;DHT22;22475;51.390;7.180;2023-04-21T09:36:45;13.80;91.50
36450;DHT22;22475;51.390;7.180;2023-04-21T09:39:12;13.80;91.50
36450;DHT22;22475;51.390;7.180;2023-04-21T09:41:40;13.80;91.50
36450;DHT22;22475;51.390;7.180;2023-04-21T09:44:08;13.80;91.50
36450;DHT22;22475;51.390;7.180;2023-04-21T09:46:35;13.80;91.50
36450;DHT22;22475;51.390;7.180;2023-04-21T09:49:03;13.80;91.50
36450;DHT22;22475;51.390;7.180;2023-04-21T09:51:30;13.80;91.50
36450;DHT22;22475;51.390;7.180;2023-04-21T09:53:58;13.80;91.50
36450;DHT22;22475;51.390;7.180;2023-04-21T09:56:28;13.80;91.60
36450;DHT22;22475;51.390;7.180;2023-04-21T09:59:01;13.80;91.50
36450;DHT22;22475;51.390;7.180;2023-04-21T10:01:32;13.80;91.50
36450;DHT22;22475;51.390;7.180;2023-04-21T10:04:03;13.80;91.50
36450;DHT22;22475;51.390;7.180;2023-04-21T10:06:30;13.80;91.50
36450;DHT22;22475;51.390;7.180;2023-04-21T10:08:57;13.80;91.50
36450;DHT22;22475;51.390;7.180;2023-04-21T10:11:24;13.80;91.50
36450;DHT22;22475;51.390;7.180;2023-04-21T10:13:51;13.80;91.50
36450;DHT22;22475;51.390;7.180;2023-04-21T10:16:19;13.80;91.50
36450;DHT22;22475;51.390;7.180;2023-04-21T10:18:47;13.90;91.50
36450;DHT22;22475;51.390;7.180;2023-04-21T10:21:17;13.90;91.50
36450;DHT22;22475;51.390;7.180;2023-04-21T10:23:47;13.90;91.50
36450;DHT22;22475;51.390;7.180;2023-04-21T10:26:17;13.90;91.50
36450;DHT22;22475;51.390;7.180;2023-04-21T10:28:45;13.90;91.50
36450;DHT22;22475;51.390;7.180;2023-04-21T10:31:28;13.90;91.50
36450;DHT22;22475;51.390;7.180;2023-04-21T10:37:17;13.90;91.40
36450;DHT22;22475;51.390;7.180;2023-04-21T10:39:50;13.90;91.50
36450;DHT22;22475;51.390;7.180;2023-04-21T10:42:23;13.90;91.40
36450;DHT22;22475;51.390;7.180;2023-04-21T10:44:51;13.90;91.50
36450;DHT22;22475;51.390;7.180;2023-04-21T10:47:25;13.90;91.50
36450;DHT22;22475;51.390;7.180;2023-04-21T10:49:52;13.90;91.50
36450;DHT22;22475;51.390;7.180;2023-04-21T10:52:21;13.90;91.50
36450;DHT22;22475;51.390;7.180;2023-04-21T10:55:06;13.90;91.50
36450;DHT22;22475;51.390;7.180;2023-04-21T10:57:35;13.90;91.60
36450;DHT22;22475;51.390;7.180;2023-04-21T11:00:03;13.90;91.50
36450;DHT22;22475;51.390;7.180;2023-04-21T11:02:33;13.90;91.50
36450;DHT22;22475;51.390;7.180;2023-04-21T11:05:00;13.90;91.60
36450;DHT22;22475;51.390;7.180;2023-04-21T11:07:28;13.90;91.60
36450;DHT22;22475;51.390;7.180;2023-04-21T11:09:57;13.90;91.60
36450;DHT22;22475;51.390;7.180;2023-04-21T11:12:27;13.90;91.60
36450;DHT22;22475;51.390;7.180;2023-04-21T11:14:54;13.90;91.50
36450;DHT22;22475;51.390;7.180;2023-04-21T11:17:22;13.90;91.50
36450;DHT22;22475;51.390;7.180;2023-04-21T11:19:52;13.90;91.50
36450;DHT22;22475;51.390;7.180;2023-04-21T11:22:20;13.90;91.50
36450;DHT22;22475;51.390;7.180;2023-04-21T11:24:49;13.90;91.50
36450;DHT22;22475;51.390;7.180;2023-04-21T11:27:16;13.90;91.50
36450;DHT22;22475;51.390;7.180;2023-04-21T11:29:44;13.90;91.50
36450;DHT22;22475;51.390;7.180;2023-04-21T11:32:12;13.90;91.50
36450;DHT22;22475;51.390;7.180;2023-04-21T11:34:40;13.90;91.50
36450;DHT22;22475;51.390;7.180;2023-04-21T11:37:09;13.90;91.40
36450;DHT22;22475;51.390;7.180;2023-04-21T11:39:39;14.00;91.50
36450;DHT22;22475;51.390;7.180;2023-04-21T11:42:06;14.00;91.40
36450;DHT22;22475;51.390;7.180;2023-04-21T11:44:34;14.00;91.50
36450;DHT22;22475;51.390;7.180;2023-04-21T11:47:11;14.00;91.40
36450;DHT22;22475;51.390;7.180;2023-04-21T11:49:43;14.00;91.40
36450;DHT22;22475;51.390;7.180;2023-04-21T11:52:19;14.00;91.40
36450;DHT22;22475;51.390;7.180;2023-04-21T11:54:47;14.00;91.40
36450;DHT22;22475;51.390;7.180;2023-04-21T11:57:17;14.00;91.40
36450;DHT22;22475;51.390;7.180;2023-04-21T11:59:44;14.00;91.40
36450;DHT22;22475;51.390;7.180;2023-04-21T12:02:12;14.00;91.30
36450;DHT22;22475;51.390;7.180;2023-04-21T12:04:39;14.00;91.30
36450;DHT22;22475;51.390;7.180;2023-04-21T12:07:06;14.00;91.30
36450;DHT22;22475;51.390;7.180;2023-04-21T12:09:35;14.00;91.30
36450;DHT22;22475;51.390;7.180;2023-04-21T12:12:03;14.00;91.30
36450;DHT22;22475;51.390;7.180;2023-04-21T12:14:32;14.00;91.30
36450;DHT22;22475;51.390;7.180;2023-04-21T12:17:00;14.00;91.30
36450;DHT22;22475;51.390;7.180;2023-04-21T12:19:34;14.00;91.30
36450;DHT22;22475;51.390;7.180;2023-04-21T12:22:06;14.00;91.20
36450;DHT22;22475;51.390;7.180;2023-04-21T12:24:34;14.10;91.30
36450;DHT22;22475;51.390;7.180;2023-04-21T12:27:01;14.00;91.20
36450;DHT22;22475;51.390;7.180;2023-04-21T12:29:28;14.00;91.20
36450;DHT22;22475;51.390;7.180;2023-04-21T12:31:55;14.10;91.20
36450;DHT22;22475;51.390;7.180;2023-04-21T12:34:21;14.10;91.20
36450;DHT22;22475;51.390;7.180;2023-04-21T12:36:48;14.00;91.20
36450;DHT22;22475;51.390;7.180;2023-04-21T12:39:15;14.00;91.20
36450;DHT22;22475;51.390;7.180;2023-04-21T12:41:44;14.10;91.20
36450;DHT22;22475;51.390;7.180;2023-04-21T12:44:11;14.10;91.20
36450;DHT22;22475;51.390;7.180;2023-04-21T12:46:38;14.10;91.20
36450;DHT22;22475;51.390;7.180;2023-04-21T12:49:05;14.10;91.10
36450;DHT22;22475;51.390;7.180;2023-04-21T12:51:34;14.10;91.10
36450;DHT22;22475;51.390;7.180;2023-04-21T12:54:01;14.10;91.10
36450;DHT22;22475;51.390;7.180;2023-04-21T12:56:28;14.10;91.10
36450;DHT22;22475;51.390;7.180;2023-04-21T12:58:57;14.10;91.10
36450;DHT22;22475;51.390;7.180;2023-04-21T13:01:24;14.10;91.10
36450;DHT22;22475;51.390;7.180;2023-04-21T13:03:50;14.10;91.10
36450;DHT22;22475;51.390;7.180;2023-04-21T13:06:17;14.10;91.10
36450;DHT22;22475;51.390;7.180;2023-04-21T13:08:44;14.10;91.00
36450;DHT22;22475;51.390;7.180;2023-04-21T13:11:11;14.10;91.00
36450;DHT22;22475;51.390;7.180;2023-04-21T13:13:38;14.20;91.10
36450;DHT22;22475;51.390;7.180;2023-04-21T13:16:06;14.10;91.00
36450;DHT22;22475;51.390;7.180;2023-04-21T13:18:33;14.20;91.00
36450;DHT22;22475;51.390;7.180;2023-04-21T13:21:00;14.10;91.00
36450;DHT22;22475;51.390;7.180;2023-04-21T13:23:27;14.20;91.00
36450;DHT22;22475;51.390;7.180;2023-04-21T13:25:54;14.20;91.00
36450;DHT22;22475;51.390;7.180;2023-04-21T13:28:21;14.10;91.00
36450;DHT22;22475;51.390;7.180;2023-04-21T13:30:49;14.20;91.00
36450;DHT22;22475;51.390;7.180;2023-04-21T13:33:18;14.10;91.00
36450;DHT22;22475;51.390;7.180;2023-04-21T13:35:45;14.10;91.00
36450;DHT22;22475;51.390;7.180;2023-04-21T13:38:12;14.20;91.00
36450;DHT22;22475;51.390;7.180;2023-04-21T13:40:38;14.20;91.00
36450;DHT22;22475;51.390;7.180;2023-04-21T13:43:05;14.20;91.00
36450;DHT22;22475;51.390;7.180;2023-04-21T13:45:32;14.20;91.00
36450;DHT22;22475;51.390;7.180;2023-04-21T13:47:59;14.20;91.00
36450;DHT22;22475;51.390;7.180;2023-04-21T13:50:27;14.20;90.90
36450;DHT22;22475;51.390;7.180;2023-04-21T13:52:54;14.20;91.00
36450;DHT22;22475;51.390;7.180;2023-04-21T13:55:20;14.20;90.90
36450;DHT22;22475;51.390;7.180;2023-04-21T13:57:47;14.20;90.90
36450;DHT22;22475;51.390;7.180;2023-04-21T14:00:15;14.20;90.90
36450;DHT22;22475;51.390;7.180;2023-04-21T14:02:42;14.20;90.90
36450;DHT22;22475;51.390;7.180;2023-04-21T14:05:08;14.20;90.90
36450;DHT22;22475;51.390;7.180;2023-04-21T14:07:37;14.20;90.90
36450;DHT22;22475;51.390;7.180;2023-04-21T14:10:04;14.20;90.90
36450;DHT22;22475;51.390;7.180;2023-04-21T14:12:31;14.20;90.80
36450;DHT22;22475;51.390;7.180;2023-04-21T14:14:57;14.30;90.80
36450;DHT22;22475;51.390;7.180;2023-04-21T14:17:24;14.20;90.80
36450;DHT22;22475;51.390;7.180;2023-04-21T14:19:51;14.20;90.80
36450;DHT22;22475;51.390;7.180;2023-04-21T14:22:18;14.30;90.80
36450;DHT22;22475;51.390;7.180;2023-04-21T14:24:46;14.20;90.80
36450;DHT22;22475;51.390;7.180;2023-04-21T14:27:13;14.30;90.80
36450;DHT22;22475;51.390;7.180;2023-04-21T14:29:40;14.20;90.80
36450;DHT22;22475;51.390;7.180;2023-04-21T14:32:07;14.30;90.80
36450;DHT22;22475;51.390;7.180;2023-04-21T14:34:33;14.30;90.80
36450;DHT22;22475;51.390;7.180;2023-04-21T14:37:00;14.30;90.80
36450;DHT22;22475;51.390;7.180;2023-04-21T14:39:27;14.30;90.80
36450;DHT22;22475;51.390;7.180;2023-04-21T14:41:55;14.30;90.80
36450;DHT22;22475;51.390;7.180;2023-04-21T14:44:22;14.30;90.80
36450;DHT22;22475;51.390;7.180;2023-04-21T14:46:49;14.30;90.80
36450;DHT22;22475;51.390;7.180;2023-04-21T14:49:15;14.30;90.70
36450;DHT22;22475;51.390;7.180;2023-04-21T14:51:42;14.30;90.70
36450;DHT22;22475;51.390;7.180;2023-04-21T14:54:11;14.30;90.70
36450;DHT22;22475;51.390;7.180;2023-04-21T14:56:38;14.30;90.70
36450;DHT22;22475;51.390;7.180;2023-04-21T14:59:06;14.30;90.70
36450;DHT22;22475;51.390;7.180;2023-04-21T15:01:34;14.30;90.70
36450;DHT22;22475;51.390;7.180;2023-04-21T15:04:01;14.30;90.70
36450;DHT22;22475;51.390;7.180;2023-04-21T15:06:28;14.30;90.70
36450;DHT22;22475;51.390;7.180;2023-04-21T15:08:56;14.30;90.70
36450;DHT22;22475;51.390;7.180;2023-04-21T15:11:22;14.30;90.70
36450;DHT22;22475;51.390;7.180;2023-04-21T15:13:49;14.30;90.70
36450;DHT22;22475;51.390;7.180;2023-04-21T15:16:18;14.30;90.70
36450;DHT22;22475;51.390;7.180;2023-04-21T15:18:44;14.30;90.70
36450;DHT22;22475;51.390;7.180;2023-04-21T15:21:11;14.30;90.70
36450;DHT22;22475;51.390;7.180;2023-04-21T15:23:38;14.30;90.70
36450;DHT22;22475;51.390;7.180;2023-04-21T15:26:05;14.30;90.70
36450;DHT22;22475;51.390;7.180;2023-04-21T15:28:32;14.30;90.70
36450;DHT22;22475;51.390;7.180;2023-04-21T15:31:00;14.30;90.70
36450;DHT22;22475;51.390;7.180;2023-04-21T15:33:28;14.30;90.70
36450;DHT22;22475;51.390;7.180;2023-04-21T15:35:55;14.40;90.70